This is the latest recevied weather packets stored in our database for station/object IU1OLT-5. If no packets are shown the sender has not sent any weather packets the latest 1 day(s).
| Time | Temp. | Humidity | Pressure | Rain* | Wind** | Luminosity | Snow |
|---|---|---|---|---|---|---|---|
| 1778008380 | 15° C | 95% | 1012.6 hPa | 0 mm | 0.89 m/s, 140° | 0 W/m² | - |
| 1778007480 | 15° C | 95% | 1012.5 hPa | 0 mm | 0.45 m/s, 258° | 0 W/m² | - |
| 1778006580 | 15° C | 96% | 1012.5 hPa | 0 mm | 2.24 m/s, 212° | 0 W/m² | - |
| 1778005679 | 15° C | 95% | 1012.7 hPa | 0 mm | 1.79 m/s, 228° | 2 W/m² | - |
| 1778004779 | 15.56° C | 95% | 1012.6 hPa | 0 mm | 2.68 m/s, 200° | 6 W/m² | - |
| 1778003879 | 15.56° C | 95% | 1012.9 hPa | 0 mm | 2.24 m/s, 215° | 9 W/m² | - |
| 1778002979 | 15.56° C | 95% | 1012.4 hPa | 0 mm | 1.79 m/s, 189° | 22 W/m² | - |
| 1778002079 | 16.11° C | 96% | 1012.4 hPa | 0 mm | 1.79 m/s, 205° | 32 W/m² | - |
| 1778001179 | 16.11° C | 94% | 1012.3 hPa | 0 mm | 2.68 m/s, 230° | 49 W/m² | - |
| 1778000279 | 16.67° C | 91% | 1012.4 hPa | 0 mm | 2.68 m/s, 225° | 130 W/m² | - |
| 1777999378 | 16.67° C | 90% | 1012.2 hPa | 0 mm | 2.68 m/s, 249° | 143 W/m² | - |
| 1777998478 | 16.67° C | 90% | 1012.7 hPa | 0 mm | 2.24 m/s, 229° | 106 W/m² | - |
| 1777997578 | 17.22° C | 88% | 1012.7 hPa | 0 mm | 3.13 m/s, 206° | 248 W/m² | - |
| 1777996678 | 17.22° C | 91% | 1012.5 hPa | 0 mm | 1.34 m/s, 211° | 106 W/m² | - |
| 1777995778 | 16.11° C | 90% | 1013 hPa | 0 mm | 1.79 m/s, 204° | 178 W/m² | - |
| 1777994878 | 16.11° C | 93% | 1012.8 hPa | 0 mm | 2.68 m/s, 224° | 145 W/m² | - |
| 1777993977 | 16.11° C | 91% | 1012.8 hPa | 0 mm | 3.13 m/s, 197° | 197 W/m² | - |
| 1777993077 | 16.67° C | 92% | 1012.8 hPa | 0 mm | 3.13 m/s, 228° | 176 W/m² | - |
| 1777992177 | 17.22° C | 88% | 1012.8 hPa | 0 mm | 2.24 m/s, 175° | 208 W/m² | - |
| 1777991277 | 17.22° C | 87% | 1012.9 hPa | 0 mm | 2.24 m/s, 257° | 309 W/m² | - |
| 1777990377 | 17.22° C | 85% | 1012.8 hPa | 0 mm | 3.13 m/s, 212° | 411 W/m² | - |
| 1777989476 | 17.78° C | 86% | 1013 hPa | 0 mm | 4.02 m/s, 216° | 193 W/m² | - |
| 1777988576 | 17.78° C | 86% | 1012.9 hPa | 0 mm | 2.68 m/s, 203° | 337 W/m² | - |
| 1777987676 | 16.67° C | 88% | 1012.8 hPa | 0 mm | 4.02 m/s, 211° | 410 W/m² | - |
| 1777986776 | 16.67° C | 88% | 1012.8 hPa | 0 mm | 3.13 m/s, 221° | 408 W/m² | - |
* Rain latest hour (hover to see other rain measurements)
** Current wind speed in m/s (hover to see current wind gust speed)